sensor_id;sensor_type;location;lat;lon;timestamp;P1;durP1;ratioP1;P2;durP2;ratioP2
18917;SDS011;9591;52.742;13.650;2024-02-14T00:00:06;12.37;;;7.20;;
18917;SDS011;9591;52.742;13.650;2024-02-14T00:02:56;14.93;;;6.87;;
18917;SDS011;9591;52.742;13.650;2024-02-14T00:05:43;13.73;;;6.90;;
18917;SDS011;9591;52.742;13.650;2024-02-14T00:08:30;13.37;;;7.20;;
18917;SDS011;9591;52.742;13.650;2024-02-14T00:11:17;15.77;;;8.20;;
18917;SDS011;9591;52.742;13.650;2024-02-14T00:14:04;13.50;;;7.13;;
18917;SDS011;9591;52.742;13.650;2024-02-14T00:16:52;15.20;;;7.83;;
18917;SDS011;9591;52.742;13.650;2024-02-14T00:19:40;15.47;;;7.53;;
18917;SDS011;9591;52.742;13.650;2024-02-14T00:22:27;14.97;;;7.40;;
18917;SDS011;9591;52.742;13.650;2024-02-14T00:25:14;18.80;;;7.57;;
18917;SDS011;9591;52.742;13.650;2024-02-14T00:28:05;14.77;;;6.70;;
18917;SDS011;9591;52.742;13.650;2024-02-14T00:30:52;12.47;;;7.50;;
18917;SDS011;9591;52.742;13.650;2024-02-14T00:33:39;14.67;;;7.43;;
18917;SDS011;9591;52.742;13.650;2024-02-14T00:36:28;17.77;;;7.60;;
18917;SDS011;9591;52.742;13.650;2024-02-14T00:39:14;15.20;;;6.97;;
18917;SDS011;9591;52.742;13.650;2024-02-14T00:42:01;12.67;;;7.10;;
18917;SDS011;9591;52.742;13.650;2024-02-14T00:44:48;18.50;;;7.00;;
18917;SDS011;9591;52.742;13.650;2024-02-14T00:47:35;14.97;;;7.23;;
18917;SDS011;9591;52.742;13.650;2024-02-14T00:50:22;13.17;;;6.67;;
18917;SDS011;9591;52.742;13.650;2024-02-14T00:53:10;12.87;;;6.27;;
18917;SDS011;9591;52.742;13.650;2024-02-14T00:55:57;15.43;;;7.17;;
18917;SDS011;9591;52.742;13.650;2024-02-14T00:58:44;16.67;;;7.87;;
18917;SDS011;9591;52.742;13.650;2024-02-14T01:01:31;15.40;;;6.80;;
18917;SDS011;9591;52.742;13.650;2024-02-14T01:04:18;14.17;;;7.30;;
18917;SDS011;9591;52.742;13.650;2024-02-14T01:07:04;10.43;;;6.50;;
18917;SDS011;9591;52.742;13.650;2024-02-14T01:09:53;13.07;;;6.87;;
18917;SDS011;9591;52.742;13.650;2024-02-14T01:12:40;12.53;;;6.63;;
18917;SDS011;9591;52.742;13.650;2024-02-14T01:15:27;14.17;;;8.03;;
18917;SDS011;9591;52.742;13.650;2024-02-14T01:18:14;14.03;;;6.97;;
18917;SDS011;9591;52.742;13.650;2024-02-14T01:21:01;16.07;;;7.33;;
18917;SDS011;9591;52.742;13.650;2024-02-14T01:23:48;14.40;;;7.60;;
18917;SDS011;9591;52.742;13.650;2024-02-14T01:26:36;13.30;;;6.83;;
18917;SDS011;9591;52.742;13.650;2024-02-14T01:29:23;16.67;;;8.33;;
18917;SDS011;9591;52.742;13.650;2024-02-14T01:32:10;12.17;;;6.90;;
18917;SDS011;9591;52.742;13.650;2024-02-14T01:34:57;15.67;;;7.57;;
18917;SDS011;9591;52.742;13.650;2024-02-14T01:37:44;14.87;;;7.30;;
18917;SDS011;9591;52.742;13.650;2024-02-14T01:40:31;14.43;;;6.77;;
18917;SDS011;9591;52.742;13.650;2024-02-14T01:43:20;16.90;;;6.57;;
18917;SDS011;9591;52.742;13.650;2024-02-14T01:46:07;18.50;;;7.23;;
18917;SDS011;9591;52.742;13.650;2024-02-14T01:48:54;14.10;;;7.50;;
18917;SDS011;9591;52.742;13.650;2024-02-14T01:51:43;14.57;;;7.13;;
18917;SDS011;9591;52.742;13.650;2024-02-14T01:54:31;13.33;;;7.37;;
18917;SDS011;9591;52.742;13.650;2024-02-14T01:57:19;14.07;;;6.80;;
18917;SDS011;9591;52.742;13.650;2024-02-14T02:00:08;13.17;;;6.70;;
18917;SDS011;9591;52.742;13.650;2024-02-14T02:03:03;14.23;;;6.47;;
18917;SDS011;9591;52.742;13.650;2024-02-14T02:05:50;12.60;;;7.43;;
18917;SDS011;9591;52.742;13.650;2024-02-14T02:08:37;13.40;;;6.97;;
18917;SDS011;9591;52.742;13.650;2024-02-14T02:11:24;10.67;;;6.13;;
18917;SDS011;9591;52.742;13.650;2024-02-14T02:14:11;13.17;;;6.87;;
18917;SDS011;9591;52.742;13.650;2024-02-14T02:17:00;18.63;;;6.37;;
18917;SDS011;9591;52.742;13.650;2024-02-14T02:19:47;14.47;;;6.07;;
18917;SDS011;9591;52.742;13.650;2024-02-14T02:22:34;15.27;;;7.13;;
18917;SDS011;9591;52.742;13.650;2024-02-14T02:25:22;16.03;;;6.83;;
18917;SDS011;9591;52.742;13.650;2024-02-14T02:28:12;13.00;;;6.37;;
18917;SDS011;9591;52.742;13.650;2024-02-14T02:30:59;11.63;;;6.17;;
18917;SDS011;9591;52.742;13.650;2024-02-14T02:33:46;12.73;;;6.50;;
18917;SDS011;9591;52.742;13.650;2024-02-14T02:36:33;12.13;;;6.67;;
18917;SDS011;9591;52.742;13.650;2024-02-14T02:39:21;8.57;;;5.53;;
18917;SDS011;9591;52.742;13.650;2024-02-14T02:42:09;15.27;;;6.20;;
18917;SDS011;9591;52.742;13.650;2024-02-14T02:44:56;12.90;;;6.17;;
18917;SDS011;9591;52.742;13.650;2024-02-14T02:47:43;11.93;;;6.27;;
18917;SDS011;9591;52.742;13.650;2024-02-14T02:50:30;10.87;;;6.27;;
18917;SDS011;9591;52.742;13.650;2024-02-14T02:53:17;11.47;;;6.67;;
18917;SDS011;9591;52.742;13.650;2024-02-14T02:56:05;12.07;;;5.97;;
18917;SDS011;9591;52.742;13.650;2024-02-14T02:58:54;11.03;;;6.73;;
18917;SDS011;9591;52.742;13.650;2024-02-14T03:01:41;15.80;;;6.43;;
18917;SDS011;9591;52.742;13.650;2024-02-14T03:04:27;9.97;;;6.13;;
18917;SDS011;9591;52.742;13.650;2024-02-14T03:07:33;12.87;;;6.47;;
18917;SDS011;9591;52.742;13.650;2024-02-14T03:10:20;12.70;;;6.43;;
18917;SDS011;9591;52.742;13.650;2024-02-14T03:13:07;9.17;;;5.97;;
18917;SDS011;9591;52.742;13.650;2024-02-14T03:15:58;12.03;;;6.27;;
18917;SDS011;9591;52.742;13.650;2024-02-14T03:18:45;10.80;;;6.50;;
18917;SDS011;9591;52.742;13.650;2024-02-14T03:21:32;13.63;;;6.37;;
18917;SDS011;9591;52.742;13.650;2024-02-14T03:24:21;16.17;;;6.33;;
18917;SDS011;9591;52.742;13.650;2024-02-14T03:27:10;15.77;;;6.30;;
18917;SDS011;9591;52.742;13.650;2024-02-14T03:29:57;13.77;;;5.63;;
18917;SDS011;9591;52.742;13.650;2024-02-14T03:32:49;12.97;;;6.60;;
18917;SDS011;9591;52.742;13.650;2024-02-14T03:35:38;10.37;;;5.80;;
18917;SDS011;9591;52.742;13.650;2024-02-14T03:38:26;11.20;;;5.70;;
18917;SDS011;9591;52.742;13.650;2024-02-14T03:41:13;10.03;;;5.40;;
18917;SDS011;9591;52.742;13.650;2024-02-14T03:44:00;12.43;;;5.87;;
18917;SDS011;9591;52.742;13.650;2024-02-14T03:46:48;15.03;;;6.40;;
18917;SDS011;9591;52.742;13.650;2024-02-14T03:49:37;9.93;;;6.37;;
18917;SDS011;9591;52.742;13.650;2024-02-14T03:52:23;13.13;;;6.67;;
18917;SDS011;9591;52.742;13.650;2024-02-14T03:55:10;8.70;;;5.13;;
18917;SDS011;9591;52.742;13.650;2024-02-14T03:57:59;10.60;;;5.80;;
18917;SDS011;9591;52.742;13.650;2024-02-14T04:00:46;10.37;;;6.23;;
18917;SDS011;9591;52.742;13.650;2024-02-14T04:03:33;10.03;;;5.53;;
18917;SDS011;9591;52.742;13.650;2024-02-14T04:06:22;9.77;;;5.40;;
18917;SDS011;9591;52.742;13.650;2024-02-14T04:09:12;11.87;;;6.27;;
18917;SDS011;9591;52.742;13.650;2024-02-14T04:11:59;13.30;;;6.30;;
18917;SDS011;9591;52.742;13.650;2024-02-14T04:14:46;11.17;;;5.87;;
18917;SDS011;9591;52.742;13.650;2024-02-14T04:17:33;12.40;;;5.53;;
18917;SDS011;9591;52.742;13.650;2024-02-14T04:20:19;9.50;;;5.97;;
18917;SDS011;9591;52.742;13.650;2024-02-14T04:23:08;11.77;;;6.43;;
18917;SDS011;9591;52.742;13.650;2024-02-14T04:25:55;13.37;;;5.73;;
18917;SDS011;9591;52.742;13.650;2024-02-14T04:28:42;11.93;;;6.47;;
18917;SDS011;9591;52.742;13.650;2024-02-14T04:31:29;17.50;;;6.50;;
18917;SDS011;9591;52.742;13.650;2024-02-14T04:34:17;14.30;;;7.03;;
18917;SDS011;9591;52.742;13.650;2024-02-14T04:37:05;15.13;;;5.87;;
18917;SDS011;9591;52.742;13.650;2024-02-14T04:39:56;12.33;;;6.33;;
18917;SDS011;9591;52.742;13.650;2024-02-14T04:42:43;12.07;;;6.93;;
18917;SDS011;9591;52.742;13.650;2024-02-14T04:45:30;13.03;;;6.50;;
18917;SDS011;9591;52.742;13.650;2024-02-14T04:48:17;9.27;;;6.00;;
18917;SDS011;9591;52.742;13.650;2024-02-14T04:51:04;8.30;;;6.00;;
18917;SDS011;9591;52.742;13.650;2024-02-14T04:53:50;12.03;;;6.03;;
18917;SDS011;9591;52.742;13.650;2024-02-14T04:56:39;13.20;;;5.90;;
18917;SDS011;9591;52.742;13.650;2024-02-14T04:59:26;14.57;;;6.13;;
18917;SDS011;9591;52.742;13.650;2024-02-14T05:02:13;15.33;;;6.70;;
18917;SDS011;9591;52.742;13.650;2024-02-14T05:05:00;15.40;;;6.70;;
18917;SDS011;9591;52.742;13.650;2024-02-14T05:07:48;10.17;;;5.70;;
18917;SDS011;9591;52.742;13.650;2024-02-14T05:10:35;13.07;;;6.80;;
18917;SDS011;9591;52.742;13.650;2024-02-14T05:13:23;15.63;;;7.10;;
18917;SDS011;9591;52.742;13.650;2024-02-14T05:16:10;13.90;;;7.10;;
18917;SDS011;9591;52.742;13.650;2024-02-14T05:18:57;12.10;;;7.07;;
18917;SDS011;9591;52.742;13.650;2024-02-14T05:21:44;12.43;;;6.63;;
18917;SDS011;9591;52.742;13.650;2024-02-14T05:24:31;17.23;;;6.33;;
18917;SDS011;9591;52.742;13.650;2024-02-14T05:27:18;18.90;;;7.47;;
18917;SDS011;9591;52.742;13.650;2024-02-14T05:30:07;10.57;;;5.73;;
18917;SDS011;9591;52.742;13.650;2024-02-14T05:32:54;10.60;;;6.33;;
18917;SDS011;9591;52.742;13.650;2024-02-14T05:35:41;14.70;;;5.50;;
18917;SDS011;9591;52.742;13.650;2024-02-14T05:38:28;10.73;;;5.73;;
18917;SDS011;9591;52.742;13.650;2024-02-14T05:41:15;11.20;;;6.10;;
18917;SDS011;9591;52.742;13.650;2024-02-14T05:44:03;11.60;;;5.77;;
18917;SDS011;9591;52.742;13.650;2024-02-14T05:46:51;11.13;;;6.30;;
18917;SDS011;9591;52.742;13.650;2024-02-14T05:49:38;11.60;;;5.80;;
18917;SDS011;9591;52.742;13.650;2024-02-14T05:52:26;9.73;;;5.67;;
18917;SDS011;9591;52.742;13.650;2024-02-14T05:55:13;10.37;;;5.60;;
18917;SDS011;9591;52.742;13.650;2024-02-14T05:58:00;10.57;;;5.90;;
18917;SDS011;9591;52.742;13.650;2024-02-14T06:00:47;11.90;;;5.67;;
18917;SDS011;9591;52.742;13.650;2024-02-14T06:03:35;10.60;;;5.40;;
18917;SDS011;9591;52.742;13.650;2024-02-14T06:06:22;12.60;;;6.20;;
18917;SDS011;9591;52.742;13.650;2024-02-14T06:09:09;9.43;;;5.77;;
18917;SDS011;9591;52.742;13.650;2024-02-14T06:11:57;11.47;;;6.33;;
18917;SDS011;9591;52.742;13.650;2024-02-14T06:14:44;11.37;;;5.50;;
18917;SDS011;9591;52.742;13.650;2024-02-14T06:17:34;14.00;;;6.20;;
18917;SDS011;9591;52.742;13.650;2024-02-14T06:20:22;12.73;;;5.43;;
18917;SDS011;9591;52.742;13.650;2024-02-14T06:23:09;10.13;;;5.73;;
18917;SDS011;9591;52.742;13.650;2024-02-14T06:25:56;11.13;;;5.47;;
18917;SDS011;9591;52.742;13.650;2024-02-14T06:28:43;10.33;;;5.67;;
18917;SDS011;9591;52.742;13.650;2024-02-14T06:31:30;10.60;;;5.50;;
18917;SDS011;9591;52.742;13.650;2024-02-14T06:34:17;10.03;;;5.50;;
18917;SDS011;9591;52.742;13.650;2024-02-14T06:37:06;10.33;;;5.27;;
18917;SDS011;9591;52.742;13.650;2024-02-14T06:39:53;10.03;;;5.60;;
18917;SDS011;9591;52.742;13.650;2024-02-14T06:42:40;13.80;;;5.53;;
18917;SDS011;9591;52.742;13.650;2024-02-14T06:45:27;10.20;;;5.20;;
18917;SDS011;9591;52.742;13.650;2024-02-14T06:48:14;11.70;;;6.37;;
18917;SDS011;9591;52.742;13.650;2024-02-14T06:51:01;8.97;;;4.63;;
18917;SDS011;9591;52.742;13.650;2024-02-14T06:53:50;9.80;;;5.40;;
18917;SDS011;9591;52.742;13.650;2024-02-14T06:56:37;6.63;;;4.97;;
18917;SDS011;9591;52.742;13.650;2024-02-14T06:59:25;10.53;;;5.50;;
18917;SDS011;9591;52.742;13.650;2024-02-14T07:02:11;10.80;;;5.73;;
18917;SDS011;9591;52.742;13.650;2024-02-14T07:04:59;9.13;;;5.63;;
18917;SDS011;9591;52.742;13.650;2024-02-14T07:07:46;10.13;;;5.73;;
18917;SDS011;9591;52.742;13.650;2024-02-14T07:10:35;9.97;;;5.03;;
18917;SDS011;9591;52.742;13.650;2024-02-14T07:13:22;10.27;;;5.80;;
18917;SDS011;9591;52.742;13.650;2024-02-14T07:16:09;10.77;;;5.60;;
18917;SDS011;9591;52.742;13.650;2024-02-14T07:18:55;9.27;;;4.87;;
18917;SDS011;9591;52.742;13.650;2024-02-14T07:21:42;8.10;;;4.80;;
18917;SDS011;9591;52.742;13.650;2024-02-14T07:24:30;6.53;;;4.87;;
18917;SDS011;9591;52.742;13.650;2024-02-14T07:27:18;8.53;;;4.80;;
18917;SDS011;9591;52.742;13.650;2024-02-14T07:30:06;8.33;;;4.70;;
18917;SDS011;9591;52.742;13.650;2024-02-14T07:32:53;7.43;;;4.70;;
18917;SDS011;9591;52.742;13.650;2024-02-14T07:35:40;7.63;;;4.77;;
18917;SDS011;9591;52.742;13.650;2024-02-14T07:38:28;6.23;;;4.83;;
18917;SDS011;9591;52.742;13.650;2024-02-14T07:41:15;11.83;;;5.23;;
18917;SDS011;9591;52.742;13.650;2024-02-14T07:44:03;12.60;;;4.87;;
18917;SDS011;9591;52.742;13.650;2024-02-14T07:46:51;8.50;;;4.83;;
18917;SDS011;9591;52.742;13.650;2024-02-14T07:49:38;7.23;;;4.63;;
18917;SDS011;9591;52.742;13.650;2024-02-14T07:52:26;6.37;;;4.20;;
18917;SDS011;9591;52.742;13.650;2024-02-14T07:55:13;11.77;;;5.33;;
18917;SDS011;9591;52.742;13.650;2024-02-14T07:57:59;9.90;;;4.83;;
18917;SDS011;9591;52.742;13.650;2024-02-14T08:00:48;8.60;;;4.37;;
18917;SDS011;9591;52.742;13.650;2024-02-14T08:03:35;8.40;;;4.70;;
18917;SDS011;9591;52.742;13.650;2024-02-14T08:06:22;11.60;;;4.67;;
18917;SDS011;9591;52.742;13.650;2024-02-14T08:09:08;7.33;;;4.57;;
18917;SDS011;9591;52.742;13.650;2024-02-14T08:11:55;8.93;;;4.80;;
18917;SDS011;9591;52.742;13.650;2024-02-14T08:14:43;9.83;;;4.90;;
18917;SDS011;9591;52.742;13.650;2024-02-14T08:17:31;7.37;;;4.47;;
18917;SDS011;9591;52.742;13.650;2024-02-14T08:20:18;7.37;;;4.80;;
18917;SDS011;9591;52.742;13.650;2024-02-14T08:23:05;6.97;;;4.70;;
18917;SDS011;9591;52.742;13.650;2024-02-14T08:25:52;7.93;;;4.70;;
18917;SDS011;9591;52.742;13.650;2024-02-14T08:28:40;7.97;;;4.20;;
18917;SDS011;9591;52.742;13.650;2024-02-14T08:31:27;7.37;;;4.40;;
18917;SDS011;9591;52.742;13.650;2024-02-14T08:34:15;10.17;;;4.17;;
18917;SDS011;9591;52.742;13.650;2024-02-14T08:37:02;8.67;;;4.43;;
18917;SDS011;9591;52.742;13.650;2024-02-14T08:39:50;9.63;;;4.10;;
18917;SDS011;9591;52.742;13.650;2024-02-14T08:42:37;7.77;;;4.60;;
18917;SDS011;9591;52.742;13.650;2024-02-14T08:45:24;11.13;;;4.47;;
18917;SDS011;9591;52.742;13.650;2024-02-14T08:48:14;7.40;;;4.50;;
18917;SDS011;9591;52.742;13.650;2024-02-14T08:51:02;8.73;;;3.87;;
18917;SDS011;9591;52.742;13.650;2024-02-14T08:53:52;6.37;;;4.27;;
18917;SDS011;9591;52.742;13.650;2024-02-14T08:56:41;7.73;;;4.20;;
18917;SDS011;9591;52.742;13.650;2024-02-14T08:59:29;7.20;;;4.20;;
18917;SDS011;9591;52.742;13.650;2024-02-14T09:02:16;7.27;;;4.27;;
18917;SDS011;9591;52.742;13.650;2024-02-14T09:05:03;12.10;;;4.67;;
18917;SDS011;9591;52.742;13.650;2024-02-14T09:07:52;6.97;;;4.33;;
18917;SDS011;9591;52.742;13.650;2024-02-14T09:10:39;6.50;;;4.40;;
18917;SDS011;9591;52.742;13.650;2024-02-14T09:13:26;7.23;;;3.60;;
18917;SDS011;9591;52.742;13.650;2024-02-14T09:16:13;7.93;;;4.30;;
18917;SDS011;9591;52.742;13.650;2024-02-14T09:19:00;5.53;;;3.90;;
18917;SDS011;9591;52.742;13.650;2024-02-14T09:21:47;7.57;;;4.10;;
18917;SDS011;9591;52.742;13.650;2024-02-14T09:24:35;5.70;;;4.23;;
18917;SDS011;9591;52.742;13.650;2024-02-14T09:27:22;10.57;;;4.30;;
18917;SDS011;9591;52.742;13.650;2024-02-14T09:30:09;5.17;;;3.77;;
18917;SDS011;9591;52.742;13.650;2024-02-14T09:33:12;7.17;;;4.53;;
18917;SDS011;9591;52.742;13.650;2024-02-14T09:35:59;7.03;;;4.10;;
18917;SDS011;9591;52.742;13.650;2024-02-14T09:38:46;5.73;;;4.17;;
18917;SDS011;9591;52.742;13.650;2024-02-14T09:41:36;6.60;;;3.97;;
18917;SDS011;9591;52.742;13.650;2024-02-14T09:44:26;8.67;;;3.57;;
18917;SDS011;9591;52.742;13.650;2024-02-14T09:47:14;6.10;;;3.50;;
18917;SDS011;9591;52.742;13.650;2024-02-14T09:50:02;7.97;;;3.83;;
18917;SDS011;9591;52.742;13.650;2024-02-14T09:52:50;6.33;;;3.53;;
18917;SDS011;9591;52.742;13.650;2024-02-14T09:55:38;6.43;;;4.07;;
18917;SDS011;9591;52.742;13.650;2024-02-14T09:58:27;5.73;;;3.50;;
18917;SDS011;9591;52.742;13.650;2024-02-14T10:01:14;13.30;;;3.67;;
18917;SDS011;9591;52.742;13.650;2024-02-14T10:04:01;7.60;;;3.50;;
18917;SDS011;9591;52.742;13.650;2024-02-14T10:06:49;9.07;;;4.27;;
18917;SDS011;9591;52.742;13.650;2024-02-14T10:09:40;5.33;;;3.57;;
18917;SDS011;9591;52.742;13.650;2024-02-14T10:12:29;6.23;;;3.50;;
18917;SDS011;9591;52.742;13.650;2024-02-14T10:15:17;7.33;;;3.70;;
18917;SDS011;9591;52.742;13.650;2024-02-14T10:18:04;6.20;;;4.03;;
18917;SDS011;9591;52.742;13.650;2024-02-14T10:20:52;7.53;;;4.13;;
18917;SDS011;9591;52.742;13.650;2024-02-14T10:23:40;5.83;;;3.80;;
18917;SDS011;9591;52.742;13.650;2024-02-14T10:26:27;7.17;;;3.70;;
18917;SDS011;9591;52.742;13.650;2024-02-14T10:29:15;7.83;;;3.73;;
18917;SDS011;9591;52.742;13.650;2024-02-14T10:32:03;7.13;;;4.00;;
18917;SDS011;9591;52.742;13.650;2024-02-14T10:34:50;4.00;;;3.30;;
18917;SDS011;9591;52.742;13.650;2024-02-14T10:37:37;6.77;;;4.00;;
18917;SDS011;9591;52.742;13.650;2024-02-14T10:40:26;10.33;;;3.90;;
18917;SDS011;9591;52.742;13.650;2024-02-14T10:43:14;6.87;;;3.50;;
18917;SDS011;9591;52.742;13.650;2024-02-14T10:46:06;5.90;;;3.60;;
18917;SDS011;9591;52.742;13.650;2024-02-14T10:49:01;4.87;;;3.57;;
18917;SDS011;9591;52.742;13.650;2024-02-14T10:51:49;7.43;;;3.73;;
18917;SDS011;9591;52.742;13.650;2024-02-14T10:54:39;6.20;;;3.97;;
18917;SDS011;9591;52.742;13.650;2024-02-14T10:57:26;8.37;;;5.53;;
18917;SDS011;9591;52.742;13.650;2024-02-14T11:00:15;4.47;;;3.63;;
18917;SDS011;9591;52.742;13.650;2024-02-14T11:03:03;10.53;;;4.10;;
18917;SDS011;9591;52.742;13.650;2024-02-14T11:05:53;5.50;;;3.57;;
18917;SDS011;9591;52.742;13.650;2024-02-14T11:08:55;5.37;;;2.90;;
18917;SDS011;9591;52.742;13.650;2024-02-14T11:11:43;6.50;;;4.50;;
18917;SDS011;9591;52.742;13.650;2024-02-14T11:14:32;8.00;;;3.50;;
18917;SDS011;9591;52.742;13.650;2024-02-14T11:17:21;9.20;;;3.77;;
18917;SDS011;9591;52.742;13.650;2024-02-14T11:20:16;6.87;;;4.00;;
18917;SDS011;9591;52.742;13.650;2024-02-14T11:23:06;8.97;;;3.80;;
18917;SDS011;9591;52.742;13.650;2024-02-14T11:26:00;4.60;;;3.80;;
18917;SDS011;9591;52.742;13.650;2024-02-14T11:28:49;6.27;;;4.23;;
18917;SDS011;9591;52.742;13.650;2024-02-14T11:31:36;7.77;;;3.47;;
18917;SDS011;9591;52.742;13.650;2024-02-14T11:34:25;7.30;;;3.67;;
18917;SDS011;9591;52.742;13.650;2024-02-14T11:37:13;5.70;;;3.90;;
18917;SDS011;9591;52.742;13.650;2024-02-14T11:40:01;4.40;;;3.17;;
18917;SDS011;9591;52.742;13.650;2024-02-14T11:42:49;4.47;;;3.47;;
18917;SDS011;9591;52.742;13.650;2024-02-14T11:45:35;6.47;;;3.47;;
18917;SDS011;9591;52.742;13.650;2024-02-14T11:48:24;5.40;;;3.20;;
18917;SDS011;9591;52.742;13.650;2024-02-14T11:51:11;4.53;;;3.77;;
18917;SDS011;9591;52.742;13.650;2024-02-14T11:53:58;5.43;;;3.87;;
18917;SDS011;9591;52.742;13.650;2024-02-14T11:56:51;4.43;;;3.60;;
18917;SDS011;9591;52.742;13.650;2024-02-14T11:59:38;9.00;;;3.80;;
18917;SDS011;9591;52.742;13.650;2024-02-14T12:02:25;7.17;;;4.20;;
18917;SDS011;9591;52.742;13.650;2024-02-14T12:05:12;5.63;;;3.67;;
18917;SDS011;9591;52.742;13.650;2024-02-14T12:07:59;6.60;;;4.00;;
18917;SDS011;9591;52.742;13.650;2024-02-14T12:10:48;5.53;;;3.40;;
18917;SDS011;9591;52.742;13.650;2024-02-14T12:13:37;6.73;;;3.80;;
18917;SDS011;9591;52.742;13.650;2024-02-14T12:16:28;9.33;;;3.70;;
18917;SDS011;9591;52.742;13.650;2024-02-14T12:19:17;6.40;;;3.70;;
18917;SDS011;9591;52.742;13.650;2024-02-14T12:22:08;5.87;;;3.30;;
18917;SDS011;9591;52.742;13.650;2024-02-14T12:25:03;7.20;;;3.70;;
18917;SDS011;9591;52.742;13.650;2024-02-14T12:27:52;5.27;;;4.00;;
18917;SDS011;9591;52.742;13.650;2024-02-14T12:30:44;5.37;;;3.13;;
18917;SDS011;9591;52.742;13.650;2024-02-14T12:33:32;4.20;;;3.83;;
18917;SDS011;9591;52.742;13.650;2024-02-14T12:36:20;5.00;;;3.57;;
18917;SDS011;9591;52.742;13.650;2024-02-14T12:39:07;7.23;;;4.30;;
18917;SDS011;9591;52.742;13.650;2024-02-14T12:41:57;8.07;;;4.17;;
18917;SDS011;9591;52.742;13.650;2024-02-14T12:44:47;6.23;;;3.60;;
18917;SDS011;9591;52.742;13.650;2024-02-14T12:47:36;6.63;;;4.63;;
18917;SDS011;9591;52.742;13.650;2024-02-14T12:50:23;6.83;;;3.57;;
18917;SDS011;9591;52.742;13.650;2024-02-14T12:53:09;7.43;;;4.50;;
18917;SDS011;9591;52.742;13.650;2024-02-14T12:55:56;7.13;;;3.87;;
18917;SDS011;9591;52.742;13.650;2024-02-14T12:58:43;6.47;;;3.80;;
18917;SDS011;9591;52.742;13.650;2024-02-14T13:01:31;9.37;;;4.20;;
18917;SDS011;9591;52.742;13.650;2024-02-14T13:04:20;7.50;;;3.73;;
18917;SDS011;9591;52.742;13.650;2024-02-14T13:07:07;6.70;;;3.23;;
18917;SDS011;9591;52.742;13.650;2024-02-14T13:09:55;6.87;;;3.43;;
18917;SDS011;9591;52.742;13.650;2024-02-14T13:12:42;10.27;;;3.97;;
18917;SDS011;9591;52.742;13.650;2024-02-14T13:15:30;4.37;;;3.30;;
18917;SDS011;9591;52.742;13.650;2024-02-14T13:18:17;5.30;;;3.50;;
18917;SDS011;9591;52.742;13.650;2024-02-14T13:21:06;8.10;;;3.77;;
18917;SDS011;9591;52.742;13.650;2024-02-14T13:23:53;4.43;;;3.53;;
18917;SDS011;9591;52.742;13.650;2024-02-14T13:26:42;8.20;;;3.80;;
18917;SDS011;9591;52.742;13.650;2024-02-14T13:29:29;6.17;;;3.90;;
18917;SDS011;9591;52.742;13.650;2024-02-14T13:32:16;4.90;;;3.57;;
18917;SDS011;9591;52.742;13.650;2024-02-14T13:35:03;5.37;;;3.50;;
18917;SDS011;9591;52.742;13.650;2024-02-14T13:37:52;5.57;;;3.87;;
18917;SDS011;9591;52.742;13.650;2024-02-14T13:40:39;4.13;;;3.13;;
18917;SDS011;9591;52.742;13.650;2024-02-14T13:43:25;5.33;;;3.50;;
18917;SDS011;9591;52.742;13.650;2024-02-14T13:46:12;9.30;;;4.30;;
18917;SDS011;9591;52.742;13.650;2024-02-14T13:49:00;4.87;;;3.47;;
18917;SDS011;9591;52.742;13.650;2024-02-14T13:51:47;4.67;;;3.90;;
18917;SDS011;9591;52.742;13.650;2024-02-14T13:54:35;6.93;;;3.43;;
18917;SDS011;9591;52.742;13.650;2024-02-14T13:57:21;4.87;;;3.63;;
18917;SDS011;9591;52.742;13.650;2024-02-14T14:00:09;4.10;;;3.67;;
18917;SDS011;9591;52.742;13.650;2024-02-14T14:02:57;3.53;;;2.90;;
18917;SDS011;9591;52.742;13.650;2024-02-14T14:05:44;4.93;;;3.90;;
18917;SDS011;9591;52.742;13.650;2024-02-14T14:08:30;5.70;;;4.03;;
18917;SDS011;9591;52.742;13.650;2024-02-14T14:11:19;4.47;;;3.43;;
18917;SDS011;9591;52.742;13.650;2024-02-14T14:14:07;6.80;;;3.83;;
18917;SDS011;9591;52.742;13.650;2024-02-14T14:16:57;4.33;;;3.20;;
18917;SDS011;9591;52.742;13.650;2024-02-14T14:19:44;5.47;;;3.63;;
18917;SDS011;9591;52.742;13.650;2024-02-14T14:22:30;5.63;;;3.63;;
18917;SDS011;9591;52.742;13.650;2024-02-14T14:25:17;5.93;;;3.73;;
18917;SDS011;9591;52.742;13.650;2024-02-14T14:28:06;4.40;;;3.50;;
18917;SDS011;9591;52.742;13.650;2024-02-14T14:30:55;5.97;;;3.67;;
18917;SDS011;9591;52.742;13.650;2024-02-14T14:33:41;7.00;;;3.53;;
18917;SDS011;9591;52.742;13.650;2024-02-14T14:36:29;4.57;;;3.20;;
18917;SDS011;9591;52.742;13.650;2024-02-14T14:39:16;5.70;;;3.77;;
18917;SDS011;9591;52.742;13.650;2024-02-14T14:42:04;4.70;;;3.40;;
18917;SDS011;9591;52.742;13.650;2024-02-14T14:44:54;5.67;;;4.40;;
18917;SDS011;9591;52.742;13.650;2024-02-14T14:47:42;7.43;;;4.47;;
18917;SDS011;9591;52.742;13.650;2024-02-14T14:50:29;5.03;;;3.93;;
18917;SDS011;9591;52.742;13.650;2024-02-14T14:53:16;4.57;;;4.17;;
18917;SDS011;9591;52.742;13.650;2024-02-14T14:56:04;5.87;;;4.63;;
18917;SDS011;9591;52.742;13.650;2024-02-14T14:58:52;8.70;;;4.67;;
18917;SDS011;9591;52.742;13.650;2024-02-14T15:01:41;9.97;;;4.00;;
18917;SDS011;9591;52.742;13.650;2024-02-14T15:04:28;6.27;;;4.83;;
18917;SDS011;9591;52.742;13.650;2024-02-14T15:07:15;5.97;;;4.37;;
18917;SDS011;9591;52.742;13.650;2024-02-14T15:10:03;3.53;;;3.23;;
18917;SDS011;9591;52.742;13.650;2024-02-14T15:12:50;6.70;;;3.83;;
18917;SDS011;9591;52.742;13.650;2024-02-14T15:15:37;4.90;;;3.90;;
18917;SDS011;9591;52.742;13.650;2024-02-14T15:18:25;6.80;;;4.23;;
18917;SDS011;9591;52.742;13.650;2024-02-14T15:21:12;5.83;;;4.63;;
18917;SDS011;9591;52.742;13.650;2024-02-14T15:23:59;6.00;;;4.10;;
18917;SDS011;9591;52.742;13.650;2024-02-14T15:26:46;5.37;;;3.83;;
18917;SDS011;9591;52.742;13.650;2024-02-14T15:29:38;6.40;;;4.57;;
18917;SDS011;9591;52.742;13.650;2024-02-14T15:32:42;5.97;;;4.33;;
18917;SDS011;9591;52.742;13.650;2024-02-14T15:35:48;6.13;;;4.27;;
18917;SDS011;9591;52.742;13.650;2024-02-14T15:38:35;6.00;;;4.17;;
18917;SDS011;9591;52.742;13.650;2024-02-14T15:41:22;5.13;;;4.37;;
18917;SDS011;9591;52.742;13.650;2024-02-14T15:44:08;6.57;;;4.53;;
18917;SDS011;9591;52.742;13.650;2024-02-14T15:46:55;9.77;;;4.70;;
18917;SDS011;9591;52.742;13.650;2024-02-14T15:49:42;7.33;;;4.53;;
18917;SDS011;9591;52.742;13.650;2024-02-14T15:52:31;6.07;;;4.40;;
18917;SDS011;9591;52.742;13.650;2024-02-14T15:55:18;7.53;;;5.10;;
18917;SDS011;9591;52.742;13.650;2024-02-14T15:58:04;6.87;;;4.73;;
18917;SDS011;9591;52.742;13.650;2024-02-14T16:00:51;8.13;;;5.10;;
18917;SDS011;9591;52.742;13.650;2024-02-14T16:03:41;7.00;;;5.40;;
18917;SDS011;9591;52.742;13.650;2024-02-14T16:06:28;8.83;;;5.57;;
18917;SDS011;9591;52.742;13.650;2024-02-14T16:09:16;8.37;;;5.60;;
18917;SDS011;9591;52.742;13.650;2024-02-14T16:12:03;9.17;;;6.10;;
18917;SDS011;9591;52.742;13.650;2024-02-14T16:14:51;11.83;;;6.07;;
18917;SDS011;9591;52.742;13.650;2024-02-14T16:17:38;11.30;;;6.90;;
18917;SDS011;9591;52.742;13.650;2024-02-14T16:20:25;7.77;;;6.03;;
18917;SDS011;9591;52.742;13.650;2024-02-14T16:23:12;8.77;;;5.90;;
18917;SDS011;9591;52.742;13.650;2024-02-14T16:26:00;8.73;;;6.13;;
18917;SDS011;9591;52.742;13.650;2024-02-14T16:28:47;9.70;;;6.20;;
18917;SDS011;9591;52.742;13.650;2024-02-14T16:31:34;12.00;;;6.63;;
18917;SDS011;9591;52.742;13.650;2024-02-14T16:34:21;8.70;;;5.87;;
18917;SDS011;9591;52.742;13.650;2024-02-14T16:37:08;9.40;;;6.37;;
18917;SDS011;9591;52.742;13.650;2024-02-14T16:40:02;8.83;;;6.47;;
18917;SDS011;9591;52.742;13.650;2024-02-14T16:42:51;9.73;;;6.47;;
18917;SDS011;9591;52.742;13.650;2024-02-14T16:45:39;13.33;;;7.00;;